createdAt,value
2022-12-23T00:01:23.628Z,7.38
2022-12-23T00:03:52.229Z,7.39
2022-12-23T00:06:20.835Z,7.41
2022-12-23T00:08:48.789Z,7.39
2022-12-23T00:11:19.605Z,7.39
2022-12-23T00:14:06.557Z,7.38
2022-12-23T00:16:37.798Z,7.38
2022-12-23T00:19:05.961Z,7.40
2022-12-23T00:21:35.851Z,7.38
2022-12-23T00:24:04.274Z,7.40
2022-12-23T00:26:32.144Z,7.40
2022-12-23T00:29:00.515Z,7.36
2022-12-23T00:31:28.413Z,7.36
2022-12-23T00:33:56.335Z,7.37
2022-12-23T00:36:25.615Z,7.39
2022-12-23T00:39:12.949Z,7.43
2022-12-23T00:41:59.595Z,7.47
2022-12-23T00:44:27.720Z,7.49
2022-12-23T00:46:55.615Z,7.48
2022-12-23T00:49:41.977Z,7.47
2022-12-23T00:52:15.650Z,7.44
2022-12-23T00:54:43.571Z,7.41
2022-12-23T00:57:11.692Z,7.37
2022-12-23T00:59:39.530Z,7.33
2022-12-23T01:02:26.149Z,7.28
2022-12-23T01:05:12.511Z,7.20
2022-12-23T01:07:42.382Z,7.11
2022-12-23T01:10:10.700Z,7.03
2022-12-23T01:12:38.756Z,6.98
2022-12-23T01:15:07.266Z,6.94
2022-12-23T01:17:35.075Z,6.89
2022-12-23T01:20:03.418Z,6.82
2022-12-23T01:22:31.253Z,6.78
2022-12-23T01:24:59.227Z,6.74
2022-12-23T01:27:27.067Z,6.68
2022-12-23T01:29:54.918Z,6.61
2022-12-23T01:32:22.806Z,6.54
2022-12-23T01:34:50.665Z,6.49
2022-12-23T01:37:18.523Z,6.43
2022-12-23T01:39:46.335Z,6.35
2022-12-23T01:42:35.791Z,6.29
2022-12-23T01:45:15.953Z,6.23
2022-12-23T01:47:43.803Z,6.16
2022-12-23T01:50:14.237Z,6.12
2022-12-23T01:52:47.811Z,6.08
2022-12-23T01:55:20.809Z,6.05
2022-12-23T01:57:49.185Z,6.01
2022-12-23T02:00:36.556Z,5.99
2022-12-23T02:03:22.960Z,5.98
2022-12-23T02:05:53.160Z,5.97
2022-12-23T02:08:39.521Z,5.96
2022-12-23T02:11:07.905Z,5.94
2022-12-23T02:13:59.931Z,5.94
2022-12-23T02:16:32.141Z,5.92
2022-12-23T02:19:05.781Z,5.90
2022-12-23T02:21:51.735Z,5.90
2022-12-23T02:25:07.448Z,5.89
2022-12-23T02:27:58.011Z,5.88
2022-12-23T02:30:30.988Z,5.87
2022-12-23T02:33:11.819Z,5.87
2022-12-23T02:35:51.587Z,5.88
2022-12-23T02:38:38.426Z,5.88
2022-12-23T02:41:14.545Z,5.92
2022-12-23T02:43:49.077Z,5.97
2022-12-23T02:46:34.222Z,6.01
2022-12-23T02:49:13.167Z,6.06
2022-12-23T02:51:46.633Z,6.11
2022-12-23T02:54:18.704Z,6.17
2022-12-23T02:56:51.055Z,6.21
2022-12-23T02:59:24.746Z,6.27
2022-12-23T03:01:54.189Z,6.33
2022-12-23T03:04:22.102Z,6.39
2022-12-23T03:06:54.004Z,6.45
2022-12-23T03:10:03.854Z,6.51
2022-12-23T03:12:59.306Z,6.60
2022-12-23T03:15:37.327Z,6.69
2022-12-23T03:18:31.373Z,6.78
2022-12-23T03:21:20.959Z,6.87
2022-12-23T03:24:15.571Z,6.97
2022-12-23T03:26:46.121Z,7.04
2022-12-23T03:29:18.507Z,7.11
2022-12-23T03:31:47.895Z,7.18
2022-12-23T03:34:22.625Z,7.25
2022-12-23T03:36:55.077Z,7.32
2022-12-23T03:39:29.193Z,7.38
2022-12-23T03:42:07.937Z,7.45
2022-12-23T03:44:47.995Z,7.52
2022-12-23T03:47:29.991Z,7.58
2022-12-23T03:50:05.800Z,7.64
2022-12-23T03:52:41.010Z,7.69
2022-12-23T03:55:17.791Z,7.74
2022-12-23T03:57:52.404Z,7.79
2022-12-23T04:00:20.218Z,7.83
2022-12-23T04:03:17.698Z,7.88
2022-12-23T04:05:54.022Z,7.92
2022-12-23T04:08:34.687Z,7.98
2022-12-23T04:11:03.045Z,8.01
2022-12-23T04:13:31.878Z,8.05
2022-12-23T04:16:01.684Z,8.09
2022-12-23T04:18:29.897Z,8.11
2022-12-23T04:20:57.768Z,8.14
2022-12-23T04:23:25.636Z,8.17
2022-12-23T04:25:53.434Z,8.19
2022-12-23T04:28:21.274Z,8.21
2022-12-23T04:30:49.097Z,8.21
2022-12-23T04:33:16.908Z,8.24
2022-12-23T04:35:44.863Z,8.26
2022-12-23T04:38:12.738Z,8.29
2022-12-23T04:40:40.516Z,8.31
2022-12-23T04:43:08.413Z,8.33
2022-12-23T04:45:36.233Z,8.35
2022-12-23T04:48:04.514Z,8.36
2022-12-23T04:50:32.339Z,8.37
2022-12-23T04:53:00.170Z,8.39
2022-12-23T04:55:28.055Z,8.39
2022-12-23T04:57:55.896Z,8.41
2022-12-23T05:00:23.786Z,8.42
2022-12-23T05:02:51.705Z,8.42
2022-12-23T05:05:19.713Z,8.44
2022-12-23T05:07:50.374Z,8.46
2022-12-23T05:10:18.340Z,8.46
2022-12-23T05:12:46.421Z,8.47
2022-12-23T05:15:14.283Z,8.48
2022-12-23T05:17:42.142Z,8.49
2022-12-23T05:20:10.312Z,8.50
2022-12-23T05:22:38.154Z,8.51
2022-12-23T05:25:06.664Z,8.53
2022-12-23T05:27:36.066Z,8.55
2022-12-23T05:30:04.164Z,8.56
2022-12-23T05:32:32.002Z,8.57
2022-12-23T05:34:59.858Z,8.58
2022-12-23T05:37:27.790Z,8.60
2022-12-23T05:39:55.674Z,8.61
2022-12-23T05:42:23.524Z,8.62
2022-12-23T05:44:51.383Z,8.64
2022-12-23T05:47:19.286Z,8.66
2022-12-23T05:49:47.108Z,8.65
2022-12-23T05:52:14.927Z,8.66
2022-12-23T05:54:42.762Z,8.67
2022-12-23T05:57:10.616Z,8.68
2022-12-23T05:59:38.629Z,8.68
2022-12-23T06:02:06.659Z,8.69
2022-12-23T06:04:34.862Z,8.71
2022-12-23T06:07:02.773Z,8.70
2022-12-23T06:09:30.792Z,8.72
2022-12-23T06:11:58.558Z,8.71
2022-12-23T06:14:29.190Z,8.70
2022-12-23T06:16:57.502Z,8.70
2022-12-23T06:19:26.468Z,8.69
2022-12-23T06:21:54.314Z,8.69
2022-12-23T06:24:22.202Z,8.69
2022-12-23T06:26:56.579Z,8.68
2022-12-23T06:29:25.359Z,8.69
2022-12-23T06:31:53.339Z,8.68
2022-12-23T06:34:21.256Z,8.68
2022-12-23T06:36:49.184Z,8.68
2022-12-23T06:39:16.981Z,8.68
2022-12-23T06:41:44.902Z,8.67
2022-12-23T06:57:31.709Z,8.99
2022-12-23T06:59:59.749Z,9.09
2022-12-23T07:02:27.817Z,9.04
2022-12-23T07:04:55.984Z,9.01
2022-12-23T07:07:23.979Z,8.95
2022-12-23T07:09:52.384Z,8.90
2022-12-23T07:12:20.419Z,8.87
2022-12-23T07:14:48.307Z,8.83
2022-12-23T07:17:16.431Z,8.78
2022-12-23T07:19:44.480Z,8.75
2022-12-23T07:22:12.330Z,8.71
2022-12-23T07:24:40.221Z,8.68
2022-12-23T07:27:08.159Z,8.67
2022-12-23T07:29:36.036Z,8.65
2022-12-23T07:32:04.314Z,8.65
2022-12-23T07:34:32.307Z,8.65
2022-12-23T07:37:00.230Z,8.67
2022-12-23T07:39:28.220Z,8.70
2022-12-23T07:42:09.329Z,8.72
2022-12-23T07:44:44.496Z,8.75
2022-12-23T07:47:12.435Z,8.77
2022-12-23T07:49:40.341Z,8.78
2022-12-23T07:52:08.227Z,8.79
2022-12-23T07:54:36.647Z,8.81
2022-12-23T07:57:04.600Z,8.83
2022-12-23T07:59:32.510Z,8.87
2022-12-23T08:02:00.492Z,8.89
2022-12-23T08:04:28.502Z,8.93
2022-12-23T08:06:56.516Z,8.96
2022-12-23T08:09:24.449Z,9.00
2022-12-23T08:11:52.306Z,9.03
2022-12-23T08:14:20.237Z,9.05
2022-12-23T08:16:48.448Z,9.08
2022-12-23T08:19:16.468Z,9.11
2022-12-23T08:21:44.388Z,9.13
2022-12-23T08:24:12.362Z,9.17
2022-12-23T08:26:40.446Z,9.20
2022-12-23T08:29:08.426Z,9.23
2022-12-23T08:31:36.361Z,9.27
2022-12-23T08:34:04.346Z,9.31
2022-12-23T08:36:34.932Z,9.35
2022-12-23T08:39:09.029Z,9.40
2022-12-23T08:41:40.355Z,9.62
2022-12-23T08:44:09.045Z,9.80
2022-12-23T08:46:38.004Z,9.78
2022-12-23T08:49:06.770Z,9.77
2022-12-23T08:51:35.811Z,9.75
2022-12-23T08:54:04.849Z,9.75
2022-12-23T08:56:36.534Z,10.03
2022-12-23T08:59:04.588Z,10.41
2022-12-23T09:01:34.781Z,10.66
2022-12-23T09:04:07.088Z,10.87
2022-12-23T09:06:38.746Z,10.97
2022-12-23T09:09:08.558Z,11.12
2022-12-23T09:11:37.033Z,11.30
2022-12-23T09:14:06.701Z,11.43
2022-12-23T09:16:34.780Z,11.43
2022-12-23T09:19:03.811Z,11.31
2022-12-23T09:21:31.968Z,11.20
2022-12-23T09:24:00.036Z,11.14
2022-12-23T09:26:30.120Z,11.10
2022-12-23T09:28:58.510Z,11.06
2022-12-23T09:31:30.687Z,11.01
2022-12-23T09:34:04.192Z,10.97
2022-12-23T09:36:32.190Z,10.93
2022-12-23T09:39:00.099Z,10.88
2022-12-23T09:41:37.230Z,10.81
2022-12-23T09:44:35.252Z,10.73
2022-12-23T09:47:15.632Z,10.62
2022-12-23T09:49:54.225Z,10.51
2022-12-23T09:52:33.545Z,10.40
2022-12-23T09:55:01.652Z,10.33
2022-12-23T09:58:05.138Z,10.29
2022-12-23T10:00:45.557Z,10.24
2022-12-23T10:03:24.553Z,10.20
2022-12-23T10:06:02.017Z,10.17
2022-12-23T10:08:38.980Z,10.16
2022-12-23T10:11:15.541Z,10.16
2022-12-23T10:13:52.356Z,10.17
2022-12-23T10:16:24.223Z,10.20
2022-12-23T10:19:16.056Z,10.25
2022-12-23T10:21:50.249Z,10.30
2022-12-23T10:24:24.538Z,10.36
2022-12-23T10:27:04.241Z,10.39
2022-12-23T10:29:34.216Z,10.41
2022-12-23T10:32:02.281Z,10.43
2022-12-23T10:35:00.436Z,10.46
2022-12-23T10:37:38.849Z,10.49
2022-12-23T10:40:23.763Z,10.50
2022-12-23T10:43:11.387Z,10.51
2022-12-23T10:45:45.305Z,10.52
2022-12-23T10:48:33.046Z,10.54
2022-12-23T10:51:01.192Z,10.58
2022-12-23T10:53:41.621Z,10.61
2022-12-23T10:56:10.367Z,10.65
2022-12-23T10:58:43.577Z,10.69
2022-12-23T11:01:24.040Z,10.73
2022-12-23T11:04:03.898Z,10.76
2022-12-23T11:06:37.790Z,10.80
2022-12-23T11:09:07.175Z,10.82
2022-12-23T11:11:54.536Z,10.83
2022-12-23T11:14:56.793Z,10.85
2022-12-23T11:17:28.358Z,10.89
2022-12-23T11:20:20.092Z,10.92
2022-12-23T11:22:58.313Z,10.94
2022-12-23T11:25:37.779Z,10.94
2022-12-23T11:28:08.173Z,10.94
2022-12-23T11:30:57.513Z,10.96
2022-12-23T11:33:35.352Z,10.97
2022-12-23T11:36:08.208Z,10.99
2022-12-23T11:39:06.902Z,11.01
2022-12-23T11:41:42.862Z,11.02
2022-12-23T11:44:16.880Z,11.02
2022-12-23T11:46:44.980Z,11.04
2022-12-23T11:49:18.396Z,11.07
2022-12-23T11:52:05.079Z,11.10
2022-12-23T11:54:34.417Z,11.13
2022-12-23T11:57:06.204Z,11.15
2022-12-23T11:59:36.965Z,11.19
2022-12-23T12:02:12.692Z,11.24
2022-12-23T12:04:42.535Z,11.33
2022-12-23T12:07:14.793Z,11.40
2022-12-23T12:09:43.784Z,11.46
2022-12-23T12:12:20.477Z,11.50
2022-12-23T12:14:52.092Z,11.53
2022-12-23T12:17:20.360Z,11.58
2022-12-23T12:19:54.159Z,11.61
2022-12-23T12:22:49.511Z,11.62
2022-12-23T12:25:42.362Z,11.62
2022-12-23T12:28:15.096Z,11.65
2022-12-23T12:31:12.767Z,11.66
2022-12-23T12:34:05.236Z,11.67
2022-12-23T12:36:51.463Z,11.65
2022-12-23T12:39:33.612Z,11.64
2022-12-23T12:42:12.933Z,11.62
2022-12-23T12:44:53.866Z,11.60
2022-12-23T12:48:11.636Z,11.58
2022-12-23T12:50:59.521Z,11.56
2022-12-23T12:53:30.705Z,11.55
2022-12-23T12:56:08.394Z,11.55
2022-12-23T12:58:38.420Z,11.55
2022-12-23T13:01:18.482Z,11.54
2022-12-23T13:04:03.542Z,11.52
2022-12-23T13:07:13.036Z,11.52
2022-12-23T13:09:49.979Z,11.53
2022-12-23T13:12:28.482Z,11.54
2022-12-23T13:15:04.632Z,11.56
2022-12-23T13:17:42.884Z,11.56
2022-12-23T13:20:39.982Z,11.55
2022-12-23T13:23:42.807Z,11.54
2022-12-23T13:26:38.955Z,11.50
2022-12-23T13:29:31.452Z,11.47
2022-12-23T13:32:23.323Z,11.48
2022-12-23T13:34:58.177Z,11.50
2022-12-23T13:37:35.149Z,11.54
2022-12-23T13:40:09.978Z,11.58
2022-12-23T13:42:44.581Z,11.63
2022-12-23T13:45:16.619Z,11.66
2022-12-23T13:47:59.669Z,11.67
2022-12-23T13:50:44.519Z,11.64
2022-12-23T13:53:47.870Z,11.61
2022-12-23T13:56:48.776Z,11.53
2022-12-23T13:59:16.817Z,11.43
2022-12-23T14:01:48.402Z,11.35
2022-12-23T14:04:31.167Z,11.30
2022-12-23T14:07:19.042Z,11.24
2022-12-23T14:10:11.738Z,11.19
2022-12-23T14:12:42.765Z,11.17
2022-12-23T14:15:29.621Z,11.14
2022-12-23T14:18:22.059Z,11.10
2022-12-23T14:21:38.991Z,11.06
2022-12-23T14:24:28.807Z,11.04
2022-12-23T14:27:23.313Z,11.04
2022-12-23T14:30:04.911Z,11.01
2022-12-23T14:32:52.827Z,10.98
2022-12-23T14:35:38.547Z,10.95
2022-12-23T14:38:16.058Z,10.92
2022-12-23T14:40:43.965Z,10.89
2022-12-23T14:43:51.403Z,10.85
2022-12-23T14:46:30.916Z,10.80
2022-12-23T14:49:22.514Z,10.76
2022-12-23T14:51:50.776Z,10.71
2022-12-23T14:54:38.319Z,10.66
2022-12-23T14:57:17.542Z,10.63
2022-12-23T14:59:56.877Z,10.59
2022-12-23T15:02:33.832Z,10.56
2022-12-23T15:05:02.763Z,10.53
2022-12-23T15:07:40.783Z,10.51
2022-12-23T15:10:20.598Z,10.49
2022-12-23T15:12:59.508Z,10.45
2022-12-23T15:15:30.107Z,10.43
2022-12-23T15:18:01.810Z,10.41
2022-12-23T15:20:29.945Z,10.41
2022-12-23T15:23:02.015Z,10.39
2022-12-23T15:25:38.482Z,10.38
2022-12-23T15:28:21.303Z,10.36
2022-12-23T15:30:55.183Z,10.34
2022-12-23T15:36:20.299Z,10.30
2022-12-23T15:38:48.354Z,10.27
2022-12-23T15:41:18.792Z,10.25
2022-12-23T15:43:46.739Z,10.23
2022-12-23T15:46:29.179Z,10.22
2022-12-23T15:48:58.400Z,10.20
2022-12-23T15:54:46.016Z,10.15
2022-12-23T15:57:20.790Z,10.12
2022-12-23T15:59:49.499Z,10.12
2022-12-23T16:02:59.539Z,10.10
2022-12-23T16:05:28.651Z,10.10
2022-12-23T16:08:11.981Z,10.10
2022-12-23T16:10:41.198Z,10.10
2022-12-23T16:13:20.336Z,10.08
2022-12-23T16:15:48.485Z,10.06
2022-12-23T16:18:19.677Z,10.04
2022-12-23T16:21:11.822Z,10.03
2022-12-23T16:23:48.262Z,10.00
2022-12-23T16:26:16.199Z,9.96
2022-12-23T16:28:58.058Z,9.93
2022-12-23T16:31:26.508Z,9.90
2022-12-23T16:33:59.441Z,9.88
2022-12-23T16:36:27.430Z,9.85
2022-12-23T16:39:14.070Z,9.82
2022-12-23T16:41:41.982Z,9.77
2022-12-23T16:44:09.855Z,9.74
2022-12-23T16:46:42.746Z,9.72
2022-12-23T16:49:15.609Z,9.70
2022-12-23T16:51:44.407Z,9.67
2022-12-23T16:54:15.757Z,9.65
2022-12-23T16:56:46.871Z,9.64
2022-12-23T16:59:15.017Z,9.63
2022-12-23T17:01:45.771Z,9.62
2022-12-23T17:04:14.436Z,9.61
2022-12-23T17:06:42.548Z,9.60
2022-12-23T17:09:11.377Z,9.60
2022-12-23T17:11:42.452Z,9.59
2022-12-23T17:14:28.497Z,9.59
2022-12-23T17:16:57.697Z,9.58
2022-12-23T17:19:28.840Z,9.56
2022-12-23T17:22:03.058Z,9.54
2022-12-23T17:24:31.327Z,9.53
2022-12-23T17:26:59.334Z,9.52
2022-12-23T17:29:28.311Z,9.51
2022-12-23T17:31:56.362Z,9.51
2022-12-23T17:34:24.823Z,9.50
2022-12-23T17:36:53.253Z,9.48
2022-12-23T17:39:22.128Z,9.45
2022-12-23T17:41:50.929Z,9.44
2022-12-23T17:44:19.120Z,9.43
2022-12-23T17:46:47.235Z,9.42
2022-12-23T17:49:15.118Z,9.41
2022-12-23T17:51:43.401Z,9.38
2022-12-23T17:54:22.157Z,9.35
2022-12-23T17:56:51.107Z,9.33
2022-12-23T17:59:18.982Z,9.29
2022-12-23T18:01:47.197Z,9.27
2022-12-23T18:04:15.286Z,9.25
2022-12-23T18:06:43.185Z,9.23
2022-12-23T18:09:11.094Z,9.22
2022-12-23T18:11:41.997Z,9.20
2022-12-23T18:14:17.902Z,9.17
2022-12-23T18:16:46.418Z,9.14
2022-12-23T18:19:20.676Z,9.12
2022-12-23T18:21:49.665Z,9.10
2022-12-23T18:24:18.353Z,9.08
2022-12-23T18:26:46.303Z,9.06
2022-12-23T18:29:14.244Z,9.03
2022-12-23T18:31:50.911Z,9.01
2022-12-23T18:34:21.113Z,9.00
2022-12-23T18:36:51.853Z,8.99
2022-12-23T18:39:20.440Z,9.00
2022-12-23T18:41:48.762Z,9.00
2022-12-23T18:44:20.961Z,9.01
2022-12-23T18:46:50.139Z,9.02
2022-12-23T18:49:18.622Z,9.02
2022-12-23T18:51:46.872Z,9.03
2022-12-23T18:54:16.596Z,9.03
2022-12-23T18:56:44.954Z,9.03
2022-12-23T18:59:18.574Z,9.04
2022-12-23T19:01:48.349Z,9.03
2022-12-23T19:04:16.443Z,9.03
2022-12-23T19:06:44.403Z,9.04
2022-12-23T19:09:18.407Z,9.04
2022-12-23T19:11:47.945Z,9.03
2022-12-23T19:14:16.135Z,9.02
2022-12-23T19:16:50.899Z,9.03
2022-12-23T19:19:21.274Z,8.98
2022-12-23T19:21:49.292Z,8.94
2022-12-23T19:24:17.686Z,8.93
2022-12-23T19:26:45.804Z,8.90
2022-12-23T19:29:14.589Z,8.86
2022-12-23T19:31:42.706Z,8.85
2022-12-23T19:34:15.132Z,8.85
2022-12-23T19:36:44.357Z,8.85
2022-12-23T19:39:16.641Z,8.85
2022-12-23T19:41:45.641Z,8.85
2022-12-23T19:44:14.509Z,8.85
2022-12-23T19:46:45.141Z,8.86
2022-12-23T19:49:19.592Z,8.88
2022-12-23T19:51:49.056Z,8.88
2022-12-23T19:54:18.754Z,8.89
2022-12-23T19:56:50.181Z,8.90
2022-12-23T19:59:20.642Z,8.89
2022-12-23T20:01:49.020Z,8.87
2022-12-23T20:04:17.394Z,8.86
2022-12-23T20:06:45.452Z,8.84
2022-12-23T20:09:13.609Z,8.81
2022-12-23T20:11:44.364Z,8.81
2022-12-23T20:14:15.217Z,8.83
2022-12-23T20:16:44.387Z,8.84
2022-12-23T20:19:12.276Z,8.84
2022-12-23T20:21:40.349Z,8.83
2022-12-23T20:24:09.414Z,8.83
2022-12-23T20:26:37.688Z,8.83
2022-12-23T20:29:06.067Z,8.84
2022-12-23T20:31:37.759Z,8.84
2022-12-23T20:34:08.168Z,8.84
2022-12-23T20:36:36.357Z,8.83
2022-12-23T20:39:05.447Z,8.84
2022-12-23T20:41:33.736Z,8.84
2022-12-23T20:46:49.795Z,8.82
2022-12-23T20:49:17.829Z,8.82
2022-12-23T20:51:45.736Z,8.84
2022-12-23T20:54:13.695Z,8.87
2022-12-23T20:56:41.574Z,8.92
2022-12-23T20:59:09.475Z,8.95
2022-12-23T21:01:39.807Z,8.97
2022-12-23T21:04:15.724Z,9.00
2022-12-23T21:06:44.839Z,9.04
2022-12-23T21:09:14.658Z,9.07
2022-12-23T21:11:45.741Z,9.09
2022-12-23T21:14:14.671Z,9.11
2022-12-23T21:16:43.121Z,9.10
2022-12-23T21:19:20.594Z,9.11
2022-12-23T21:21:49.716Z,9.10
2022-12-23T21:24:18.256Z,9.10
2022-12-23T21:26:51.816Z,9.10
2022-12-23T21:29:23.603Z,9.10
2022-12-23T21:31:51.596Z,9.10
2022-12-23T21:34:19.579Z,9.10
2022-12-23T21:36:47.687Z,9.11
2022-12-23T21:39:16.445Z,9.10
2022-12-23T21:41:45.467Z,9.09
2022-12-23T21:44:16.161Z,9.08
2022-12-23T21:46:44.439Z,9.07
2022-12-23T21:49:12.469Z,9.05
2022-12-23T21:51:41.575Z,9.03
2022-12-23T21:54:12.037Z,9.02
2022-12-23T21:56:41.405Z,9.02
2022-12-23T21:59:14.616Z,9.02
2022-12-23T22:01:43.500Z,9.01
2022-12-23T22:04:11.876Z,8.99
2022-12-23T22:06:43.911Z,9.00
2022-12-23T22:09:15.569Z,9.01
2022-12-23T22:11:43.953Z,9.01
2022-12-23T22:14:14.725Z,9.01
2022-12-23T22:16:42.810Z,9.02
2022-12-23T22:19:11.635Z,9.02
2022-12-23T22:21:39.906Z,9.02
2022-12-23T22:24:08.837Z,9.02
2022-12-23T22:26:37.472Z,9.00
2022-12-23T22:29:06.821Z,8.99
2022-12-23T22:31:45.419Z,8.99
2022-12-23T22:34:17.310Z,8.97
2022-12-23T22:36:45.904Z,8.93
2022-12-23T22:39:19.968Z,8.88
2022-12-23T22:41:52.783Z,8.89
2022-12-23T22:44:21.716Z,8.90
2022-12-23T22:46:49.867Z,8.91
2022-12-23T22:49:18.247Z,8.89
2022-12-23T22:51:46.365Z,8.89
2022-12-23T22:54:14.499Z,8.90
2022-12-23T22:56:43.040Z,8.90
2022-12-23T22:59:20.137Z,8.90
2022-12-23T23:01:49.548Z,8.90
2022-12-23T23:04:18.009Z,8.89
2022-12-23T23:06:46.061Z,8.88
2022-12-23T23:09:16.997Z,8.88
2022-12-23T23:11:45.451Z,8.88
2022-12-23T23:14:13.836Z,8.87
2022-12-23T23:16:42.209Z,8.86
2022-12-23T23:19:10.738Z,8.85
2022-12-23T23:21:38.613Z,8.84
2022-12-23T23:24:06.916Z,8.82
2022-12-23T23:26:34.929Z,8.80
2022-12-23T23:29:02.872Z,8.79
2022-12-23T23:31:46.141Z,8.79
2022-12-23T23:34:14.409Z,8.79
2022-12-23T23:36:42.478Z,8.79
2022-12-23T23:39:14.180Z,8.79
2022-12-23T23:41:42.583Z,8.78
2022-12-23T23:44:11.621Z,8.76
2022-12-23T23:46:40.168Z,8.74
2022-12-23T23:49:08.529Z,8.73
2022-12-23T23:51:36.635Z,8.72
2022-12-23T23:54:04.592Z,8.73
2022-12-23T23:56:38.202Z,8.75
2022-12-23T23:59:08.345Z,8.77
